Austin Bergstrom International Airport
KAUS : now visible

Airfield :











YOU CAN JOIN US ON...

 
LOGIN :

Register | Disclaimer

   EN    FR    IT 

 









Legend :    VFR   Marginal VFR   IFR   Intensive IFR   Very Intensive IFR
Visi :
Ceiling :
>= 8 km
>= 3000ft
5 to 8 km
1000 to 3000 ft
1500m to 5 km
500 to 1000 ft
800 to 1500m
200 to 500 ft
< 800m
< 200 ft
Symbols :   Thunderstorms  Fog  Heavy snow  Heavy precipitations  Wind > 20 kt







- Airport Elevation : 542 ft
- IATA code : AUS


KAUS - Austin Bergstrom International

CURRENT METAR :
  • 241853Z 14018G24KT 10SM SCT046TCU BKN050 BKN250 32/21 A2999 RMK AO2 SLP144 TCU NE AND S T03220206

EXPIRED METARs :
  • 241753Z 16014KT 10SM SCT038TCU SCT050 SCT120 BKN250 32/21 A3000 RMK AO2 SLP148 TCU NE AND W T03220211 10322 20261
  • 241653Z 15017G21KT 10SM BKN040 BKN055 BKN250 31/21 A3001 RMK AO2 SLP151 T03060211
  • 241630Z 17014G20KT 10SM FEW022 BKN040 BKN055 BKN250 30/22 A3001 RMK AO2 T03000217

TAF KAUS
Valid from the 24 at 18:00 until the 26 at 00:00 UTC


241808Z 2418/2524 15017G27KT P6SM VCSH BKN040 BKN060 BKN250
FM250400 16011KT P6SM BKN019
FM251500 17013KT P6SM OVC025
FM251700 16014KT P6SM SCT040
KZHU FIR / North America



MET'MAP, your aeronautical weather chart ! - Copyright ORBIFLY December 2007 - Disclaimer

ORBIFLY MET'MAP TEAM :

Programming & Development : Alexandra Zaïnal
Concept & Development : Baudouin d'Aumeries
Co-Development & Prog : Marc-Olivier Méhu
Technical & hardware support : Manuel Goepfert

Contact : metmap@orbifly.com




SOURCES & CREDITS :

   NOAA       Earth
Advisory